Time;durP1;ratioP1;P1;durP2;ratioP2;P2;SDS_P1;SDS_P2;PMS_P1;PMS_P2;Temp;Humidity;BMP_temperature;BMP_pressure;BME280_temperature;BME280_humidity;BME280_pressure;Samples;Min_cycle;Max_cycle;Signal;HPM_P1;HPM_P2
2022/05/12 10:48:04;;;;;;;;;;;;;;;25.90;49.36;98001.94;1708375;82;20293;-84
2022/05/12 10:50:33;;;;;;;;;;;;;;;26.03;49.12;98001.84;1713202;83;22672;-85
2022/05/12 10:53:16;;;;;;;;;;;;;;;26.12;48.63;98007.28;1714586;83;25983;-83
2022/05/12 10:55:46;;;;;;;;;;;;;;;26.20;48.52;98006.48;1711532;83;24488;-83
2022/05/12 10:58:20;;;;;;;;;;;;;;;26.30;48.19;98015.42;1713722;83;20225;-83
2022/05/12 11:00:48;;;;;;;;;;;;;;;26.38;47.12;98008.46;1701057;83;24940;-83
2022/05/12 11:03:16;;;;;;;;;;;;;;;26.46;46.20;98011.37;1737486;81;22066;-83
2022/05/12 11:05:47;;;;;;;;;;;;;;;26.65;46.42;98023.83;1736343;82;26038;-83
2022/05/12 11:08:14;;;;;;;;;;;;;;;26.79;46.65;98030.72;1738051;82;24420;-82
2022/05/12 11:10:42;;;;;;;;;;;;;;;26.69;45.95;98028.23;1724804;83;20481;-88
2022/05/12 11:13:19;;;;;;;;;;;;;;;26.55;45.40;98015.45;1727778;83;24330;-83
2022/05/12 11:16:00;;;;;;;;;;;;;;;26.52;44.32;98029.30;1729389;83;21965;-84
2022/05/12 11:18:33;;;;;;;;;;;;;;;26.52;43.55;98023.92;1724246;83;25953;-84
2022/05/12 11:21:02;;;;;;;;;;;;;;;26.36;42.43;98017.23;1725626;82;24692;-84
2022/05/12 11:23:47;;;;;;;;;;;;;;;26.35;42.26;98022.30;1724728;83;20220;-84
2022/05/12 11:26:30;;;;;;;;;;;;;;;26.47;41.92;98018.39;1729805;83;24325;-84
2022/05/12 11:31:47;;;;;;;;;;;;;;;26.84;41.31;98009.95;1727346;82;26083;-84
2022/05/12 11:34:18;;;;;;;;;;;;;;;26.99;40.85;98015.30;1718397;83;25136;-85
2022/05/12 11:36:45;;;;;;;;;;;;;;;27.05;40.34;98011.73;1724964;83;20352;-85
2022/05/12 11:39:25;;;;;;;;;;;;;;;26.95;39.87;98008.70;1725578;83;23827;-85
2022/05/12 11:42:08;;;;;;;;;;;;;;;26.81;39.65;98009.85;1725456;83;21989;-85
2022/05/12 11:44:39;;;;;;;;;;;;;;;26.89;39.72;97988.13;1725904;82;26652;-84
2022/05/12 11:47:07;;;;;;;;;;;;;;;27.12;39.91;97998.20;1720089;82;24421;-85
2022/05/12 11:49:35;;;;;;;;;;;;;;;27.34;39.93;97988.66;1720001;83;20290;-86
2022/05/12 11:52:03;;;;;;;;;;;;;;;27.43;39.11;97998.08;1728186;83;24368;-86
2022/05/12 11:54:36;;;;;;;;;;;;;;;27.49;38.59;97990.43;1724894;83;22066;-86
2022/05/12 11:57:04;;;;;;;;;;;;;;;27.47;37.95;97998.44;1720671;83;26057;-88
2022/05/12 11:59:34;;;;;;;;;;;;;;;27.50;37.38;97989.94;1725281;83;24550;-84
2022/05/12 12:02:04;;;;;;;;;;;;;;;27.53;37.06;98000.27;1728477;81;20206;-86
2022/05/12 12:04:37;;;;;;;;;;;;;;;27.54;36.98;98003.25;1722752;83;24328;-87
2022/05/12 12:07:04;;;;;;;;;;;;;;;27.53;36.77;98003.47;1729432;83;22092;-85
2022/05/12 12:09:33;;;;;;;;;;;;;;;27.58;36.63;98011.16;1729372;83;26026;-85
2022/05/12 12:12:00;;;;;;;;;;;;;;;27.52;36.63;98016.09;1722261;83;24729;-85
2022/05/12 12:14:40;;;;;;;;;;;;;;;27.38;36.61;98003.31;1725417;81;20283;-85
2022/05/12 12:17:09;;;;;;;;;;;;;;;27.28;36.57;98016.94;1683799;83;24447;-84
2022/05/12 12:19:43;;;;;;;;;;;;;;;27.09;36.30;98016.12;1725768;83;22164;-85
2022/05/12 12:22:24;;;;;;;;;;;;;;;26.97;36.47;98022.75;1726168;83;26705;-85
2022/05/12 12:24:53;;;;;;;;;;;;;;;26.86;36.47;98035.52;1709676;83;24450;-84
2022/05/12 12:27:21;;;;;;;;;;;;;;;26.68;36.32;98031.44;1718433;83;20281;-84
2022/05/12 12:29:49;;;;;;;;;;;;;;;26.71;36.42;98026.98;1707599;83;24392;-87
2022/05/12 12:32:26;;;;;;;;;;;;;;;26.79;36.47;98024.53;1727150;83;22055;-87
2022/05/12 12:34:56;;;;;;;;;;;;;;;26.83;36.47;98032.47;1725458;83;26052;-88
2022/05/12 12:37:30;;;;;;;;;;;;;;;26.83;36.55;98029.27;1724858;83;24414;-87
2022/05/12 12:39:56;;;;;;;;;;;;;;;26.92;36.50;98033.85;1717425;83;20177;-85
2022/05/12 12:42:34;;;;;;;;;;;;;;;26.96;36.54;98033.19;1725361;83;20726;-84
2022/05/12 12:45:05;;;;;;;;;;;;;;;26.96;36.54;98030.50;1722586;83;21978;-83
2022/05/12 12:47:48;;;;;;;;;;;;;;;26.92;36.59;98027.96;1726532;81;26075;-84
2022/05/12 12:50:16;;;;;;;;;;;;;;;26.89;36.53;98023.05;1729988;82;24447;-83
2022/05/12 12:52:46;;;;;;;;;;;;;;;27.01;36.77;98019.91;1731193;82;20584;-83
2022/05/12 12:58:05;;;;;;;;;;;;;;;27.39;37.27;98036.36;1732703;82;22208;-87
2022/05/12 13:00:37;;;;;;;;;;;;;;;27.18;36.38;98029.56;1731632;82;26233;-83
2022/05/12 13:03:07;;;;;;;;;;;;;;;26.96;36.11;98055.19;1730962;81;24381;-82
2022/05/12 13:05:34;;;;;;;;;;;;;;;26.79;36.34;98050.86;1731997;82;20245;-83
2022/05/12 13:08:08;;;;;;;;;;;;;;;26.58;36.53;98047.22;1736553;82;24481;-83
2022/05/12 13:10:46;;;;;;;;;;;;;;;26.40;36.75;98053.88;1734224;82;22005;-83
2022/05/12 13:13:12;;;;;;;;;;;;;;;26.35;37.08;98049.68;1729483;82;26025;-85
2022/05/12 13:15:48;;;;;;;;;;;;;;;26.38;37.44;98054.08;1733177;82;24485;-84
2022/05/12 13:18:18;;;;;;;;;;;;;;;26.35;37.61;98055.84;1731199;82;20505;-84
2022/05/12 13:20:44;;;;;;;;;;;;;;;26.40;37.86;98057.90;1732051;82;24200;-84
2022/05/12 13:23:18;;;;;;;;;;;;;;;26.31;37.97;98059.17;1735265;82;22064;-84
2022/05/12 13:25:44;;;;;;;;;;;;;;;26.27;38.29;98059.31;1728983;82;25995;-84
2022/05/12 13:28:16;;;;;;;;;;;;;;;26.34;38.56;98061.45;1725867;82;24407;-84
2022/05/12 13:30:44;;;;;;;;;;;;;;;26.43;38.76;98066.33;1730956;82;20192;-84
2022/05/12 13:33:15;;;;;;;;;;;;;;;26.41;38.82;98065.71;1726632;82;24437;-85
2022/05/12 13:38:54;;;;;;;;;;;;;;;26.31;39.12;98061.86;1732704;82;26031;-85
2022/05/12 13:41:22;;;;;;;;;;;;;;;26.18;39.52;98063.55;1730749;82;20818;-85
2022/05/12 13:44:15;;;;;;;;;;;;;;;26.06;39.69;98066.63;1733595;82;20367;-85
2022/05/12 13:46:43;;;;;;;;;;;;;;;26.28;40.09;98066.33;1737165;82;24409;-84
2022/05/12 13:49:15;;;;;;;;;;;;;;;26.36;40.37;98068.73;1718512;83;20186;-84
2022/05/12 13:51:43;;;;;;;;;;;;;;;26.36;40.51;98070.08;1737227;82;26066;-84
2022/05/12 13:54:09;;;;;;;;;;;;;;;26.27;40.69;98066.02;1719714;83;25359;-84
2022/05/12 13:56:37;;;;;;;;;;;;;;;26.41;41.01;98070.25;1713055;82;20177;-84
2022/05/12 13:59:08;;;;;;;;;;;;;;;26.55;41.13;98071.31;1718303;82;24345;-84
2022/05/12 14:01:35;;;;;;;;;;;;;;;26.86;41.48;98070.95;1710464;83;21995;-84
2022/05/12 14:04:15;;;;;;;;;;;;;;;27.03;41.67;98076.94;1715913;83;26066;-84
2022/05/12 14:06:42;;;;;;;;;;;;;;;26.92;41.37;98078.99;1719688;83;24455;-84
2022/05/12 14:09:10;;;;;;;;;;;;;;;27.11;41.59;98077.70;1721054;83;20218;-84
2022/05/12 14:11:36;;;;;;;;;;;;;;;27.21;41.75;98083.39;1717715;82;24335;-84
2022/05/12 14:19:40;;;;;;;;;;;;;;;27.69;41.75;98077.63;1732027;82;23990;-84
2022/05/12 14:22:11;;;;;;;;;;;;;;;27.84;41.75;98087.98;1723950;82;20176;-84
2022/05/12 14:24:41;;;;;;;;;;;;;;;27.87;41.56;98081.66;1739531;82;24389;-85
2022/05/12 14:27:10;;;;;;;;;;;;;;;27.76;41.17;98082.93;1719486;83;21981;-85
2022/05/12 14:29:34;;;;;;;;;;;;;;;27.75;41.22;98080.77;1718100;83;26087;-84
2022/05/12 14:32:00;;;;;;;;;;;;;;;27.87;41.41;98080.31;1747784;82;20350;-84
2022/05/12 14:34:27;;;;;;;;;;;;;;;27.89;41.20;98074.68;1750349;82;20566;-84
2022/05/12 14:36:55;;;;;;;;;;;;;;;27.77;40.88;98086.72;1748982;82;24389;-84
2022/05/12 14:39:21;;;;;;;;;;;;;;;27.57;40.69;98073.20;1750709;82;22104;-84
2022/05/12 14:41:47;;;;;;;;;;;;;;;27.55;40.68;98078.01;1750900;82;26016;-83
2022/05/12 14:44:13;;;;;;;;;;;;;;;27.50;40.62;98078.66;1748101;82;20295;-84
2022/05/12 14:46:41;;;;;;;;;;;;;;;27.47;40.74;98075.05;1750369;82;20187;-84
2022/05/12 14:49:09;;;;;;;;;;;;;;;27.53;41.08;98075.53;1738036;82;25157;-84
2022/05/12 14:51:36;;;;;;;;;;;;;;;27.54;41.12;98086.59;1734000;82;22089;-84
2022/05/12 14:54:02;;;;;;;;;;;;;;;27.43;40.98;98084.61;1729683;82;26131;-84
2022/05/12 14:56:28;;;;;;;;;;;;;;;27.25;40.88;98088.09;1721309;82;24347;-84
2022/05/12 14:58:54;;;;;;;;;;;;;;;27.20;41.06;98089.80;1728836;82;20897;-84
2022/05/12 15:01:22;;;;;;;;;;;;;;;27.14;41.14;98093.37;1726113;82;24588;-84
2022/05/12 15:03:51;;;;;;;;;;;;;;;27.01;41.06;98088.41;1726638;82;21991;-84
2022/05/12 15:06:16;;;;;;;;;;;;;;;26.91;41.24;98093.45;1726761;81;26163;-84
2022/05/12 15:08:43;;;;;;;;;;;;;;;26.78;41.16;98098.92;1727262;82;20508;-84
2022/05/12 15:11:09;;;;;;;;;;;;;;;26.65;41.11;98100.34;1732219;81;20264;-84
2022/05/12 15:13:35;;;;;;;;;;;;;;;26.46;41.01;98100.77;1726145;82;20236;-84
2022/05/12 15:16:01;;;;;;;;;;;;;;;26.24;40.95;98100.80;1732489;81;21955;-84
2022/05/12 15:18:27;;;;;;;;;;;;;;;26.04;40.90;98100.88;1727859;82;25941;-84
2022/05/12 15:20:53;;;;;;;;;;;;;;;25.83;40.92;98102.00;1727923;81;24399;-84
2022/05/12 15:23:19;;;;;;;;;;;;;;;25.72;41.18;98105.85;1727885;82;20271;-84
2022/05/12 15:25:47;;;;;;;;;;;;;;;25.70;41.42;98107.91;1732796;82;20250;-84
2022/05/12 15:28:15;;;;;;;;;;;;;;;25.67;41.68;98105.66;1730966;82;21962;-84
2022/05/12 15:30:41;;;;;;;;;;;;;;;25.62;41.80;98112.18;1733327;82;26050;-85
2022/05/12 15:33:07;;;;;;;;;;;;;;;25.52;41.88;98107.23;1733822;82;24412;-84
2022/05/12 15:35:34;;;;;;;;;;;;;;;25.50;42.05;98102.59;1730932;82;20271;-84
2022/05/12 15:38:00;;;;;;;;;;;;;;;25.53;42.36;98103.48;1728067;82;24057;-84
2022/05/12 15:40:26;;;;;;;;;;;;;;;25.52;42.41;98095.69;1730169;82;20272;-85
2022/05/12 15:42:52;;;;;;;;;;;;;;;25.44;42.30;98099.41;1731954;82;20988;-85
2022/05/12 15:45:18;;;;;;;;;;;;;;;25.34;42.27;98097.16;1729439;82;24482;-85
2022/05/12 15:47:46;;;;;;;;;;;;;;;25.29;42.33;98098.30;1733965;82;20241;-85
2022/05/12 15:50:23;;;;;;;;;;;;;;;25.18;42.24;98100.28;1734715;82;24535;-84
2022/05/12 15:52:49;;;;;;;;;;;;;;;25.11;42.32;98103.47;1732054;82;21870;-85
2022/05/12 15:55:15;;;;;;;;;;;;;;;25.05;42.56;98100.79;1736711;82;21828;-84
2022/05/12 15:57:41;;;;;;;;;;;;;;;25.01;42.71;98097.71;1734082;82;24554;-84
2022/05/12 16:00:08;;;;;;;;;;;;;;;24.97;42.84;98104.01;1735471;82;20247;-84
2022/05/12 16:02:34;;;;;;;;;;;;;;;24.90;42.82;98105.85;1732870;82;24561;-84
2022/05/12 16:05:01;;;;;;;;;;;;;;;24.84;42.89;98101.28;1732775;82;21914;-85
2022/05/12 16:07:27;;;;;;;;;;;;;;;24.84;42.96;98103.14;1736114;82;26052;-84
2022/05/12 16:09:53;;;;;;;;;;;;;;;24.80;43.05;98101.91;1736960;82;20738;-85
2022/05/12 16:12:40;;;;;;;;;;;;;;;24.77;43.17;98107.14;1738239;82;20157;-85
2022/05/12 16:15:12;;;;;;;;;;;;;;;24.65;43.17;98111.98;1730190;82;24553;-84
2022/05/12 16:17:28;;;;;;;;;;;;;;;24.51;42.94;98107.12;1733775;82;22352;-85
2022/05/12 16:19:55;;;;;;;;;;;;;;;24.41;42.88;98111.53;1705264;83;25969;-84
2022/05/12 16:22:21;;;;;;;;;;;;;;;24.36;43.00;98118.52;1722102;83;24651;-85
2022/05/12 16:24:48;;;;;;;;;;;;;;;24.35;43.19;98120.36;1718624;83;20298;-85
2022/05/12 16:27:15;;;;;;;;;;;;;;;24.27;43.16;98121.07;1722667;83;24592;-85
2022/05/12 16:29:42;;;;;;;;;;;;;;;24.26;43.21;98123.43;1719636;81;22048;-85
2022/05/12 16:32:13;;;;;;;;;;;;;;;24.24;43.23;98121.45;1725000;83;26013;-85
2022/05/12 16:34:40;;;;;;;;;;;;;;;24.24;43.36;98132.16;1722072;83;24461;-85
2022/05/12 16:37:08;;;;;;;;;;;;;;;24.22;43.46;98124.32;1696803;83;20518;-84
2022/05/12 16:39:35;;;;;;;;;;;;;;;24.20;43.43;98119.71;1720355;81;25287;-84
2022/05/12 16:42:01;;;;;;;;;;;;;;;24.16;43.49;98119.77;1722700;83;22205;-84
2022/05/12 16:44:27;;;;;;;;;;;;;;;24.18;43.63;98126.59;1721466;81;26583;-84
2022/05/12 16:46:57;;;;;;;;;;;;;;;24.17;43.65;98134.77;1722278;83;24454;-85
2022/05/12 16:49:23;;;;;;;;;;;;;;;24.15;43.77;98128.30;1706851;82;20258;-85
2022/05/12 16:51:49;;;;;;;;;;;;;;;24.10;43.89;98128.08;1709715;83;24659;-85
2022/05/12 16:54:15;;;;;;;;;;;;;;;24.03;43.79;98125.06;1725889;83;20389;-85
2022/05/12 16:56:41;;;;;;;;;;;;;;;23.99;43.77;98129.99;1694896;84;21194;-84
2022/05/12 16:59:08;;;;;;;;;;;;;;;23.96;43.76;98132.22;1696160;84;25417;-84
2022/05/12 17:01:34;;;;;;;;;;;;;;;23.89;43.79;98134.89;1692036;84;20311;-84
2022/05/12 17:04:00;;;;;;;;;;;;;;;23.91;43.84;98134.16;1695285;84;24528;-84
2022/05/12 17:06:26;;;;;;;;;;;;;;;23.89;43.87;98141.58;1691574;84;22083;-84
2022/05/12 17:08:53;;;;;;;;;;;;;;;23.85;43.94;98136.80;1696206;83;26060;-84
2022/05/12 17:11:19;;;;;;;;;;;;;;;23.71;43.91;98134.58;1695835;84;24501;-84
2022/05/12 17:13:45;;;;;;;;;;;;;;;23.63;43.95;98132.88;1696467;84;20265;-84
2022/05/12 17:16:11;;;;;;;;;;;;;;;23.55;43.97;98134.39;1697206;83;20262;-84
2022/05/12 17:18:38;;;;;;;;;;;;;;;23.53;44.12;98140.94;1689955;84;20373;-84
2022/05/12 17:21:06;;;;;;;;;;;;;;;23.52;44.24;98142.78;1694479;84;26075;-84
2022/05/12 17:23:33;;;;;;;;;;;;;;;23.50;44.37;98148.03;1694244;84;25163;-84
2022/05/12 17:25:59;;;;;;;;;;;;;;;23.46;44.36;98147.57;1717012;83;20685;-84
2022/05/12 17:28:26;;;;;;;;;;;;;;;23.46;44.50;98152.91;1719767;83;24526;-84
2022/05/12 17:30:51;;;;;;;;;;;;;;;23.47;44.67;98155.91;1718663;83;20376;-84
2022/05/12 17:33:17;;;;;;;;;;;;;;;23.45;44.85;98155.77;1721400;83;25984;-84
2022/05/12 17:35:44;;;;;;;;;;;;;;;23.40;45.01;98154.20;1721270;82;20328;-84
2022/05/12 17:38:17;;;;;;;;;;;;;;;23.36;45.17;98160.42;1721761;83;20222;-84
2022/05/12 17:40:50;;;;;;;;;;;;;;;23.31;45.33;98157.51;1720391;83;24762;-84
2022/05/12 17:43:11;;;;;;;;;;;;;;;23.22;45.46;98162.69;1720552;83;22796;-84
2022/05/12 17:45:38;;;;;;;;;;;;;;;23.14;45.60;98172.16;1721611;83;25973;-85
2022/05/12 17:48:05;;;;;;;;;;;;;;;22.98;45.61;98173.77;1721313;83;24392;-85
2022/05/12 17:50:32;;;;;;;;;;;;;;;22.73;45.58;98171.50;1720018;83;20308;-84
2022/05/12 17:52:59;;;;;;;;;;;;;;;22.52;45.63;98172.80;1720724;83;25213;-85
2022/05/12 17:55:25;;;;;;;;;;;;;;;22.33;45.63;98176.05;1721513;83;21992;-84
2022/05/12 17:57:51;;;;;;;;;;;;;;;22.21;45.73;98180.20;1720059;83;26220;-84
2022/05/12 18:00:24;;;;;;;;;;;;;;;22.15;45.96;98187.64;1720115;83;20269;-84
2022/05/12 18:02:51;;;;;;;;;;;;;;;22.07;46.23;98189.89;1720487;82;20474;-84
2022/05/12 18:05:17;;;;;;;;;;;;;;;21.96;46.46;98183.20;1720700;83;24626;-84
2022/05/12 18:07:44;;;;;;;;;;;;;;;21.83;46.53;98186.97;1722290;83;21996;-84
2022/05/12 18:10:12;;;;;;;;;;;;;;;21.70;46.53;98197.45;1721721;82;26679;-84
2022/05/12 18:12:39;;;;;;;;;;;;;;;21.65;46.51;98203.84;1723139;83;24503;-84
2022/05/12 18:15:08;;;;;;;;;;;;;;;21.53;46.41;98201.30;1722213;83;20511;-84
2022/05/12 18:17:35;;;;;;;;;;;;;;;21.48;46.41;98203.18;1719905;83;24639;-84
2022/05/12 18:20:03;;;;;;;;;;;;;;;21.45;46.37;98204.03;1718252;83;22081;-84
2022/05/12 18:22:32;;;;;;;;;;;;;;;21.42;46.38;98203.07;1720180;83;25482;-84
2022/05/12 18:24:58;;;;;;;;;;;;;;;21.41;46.53;98211.56;1721282;83;24399;-84
2022/05/12 18:27:24;;;;;;;;;;;;;;;21.48;46.77;98212.50;1722308;82;20402;-87
2022/05/12 18:29:50;;;;;;;;;;;;;;;21.57;46.98;98210.57;1718480;83;20790;-84
2022/05/12 18:32:16;;;;;;;;;;;;;;;21.54;47.15;98209.61;1719815;83;21969;-85
2022/05/12 18:34:42;;;;;;;;;;;;;;;21.45;47.39;98218.67;1720611;83;25962;-84
2022/05/12 18:37:08;;;;;;;;;;;;;;;21.36;47.58;98220.59;1721313;83;24475;-84
2022/05/12 18:39:34;;;;;;;;;;;;;;;21.40;47.80;98234.36;1719564;83;20331;-87
2022/05/12 18:42:00;;;;;;;;;;;;;;;21.42;47.92;98243.01;1723197;83;20212;-85
2022/05/12 18:44:26;;;;;;;;;;;;;;;21.39;48.06;98240.69;1722437;83;20861;-84
2022/05/12 18:46:52;;;;;;;;;;;;;;;21.37;48.23;98241.39;1721789;83;26024;-87
2022/05/12 18:49:18;;;;;;;;;;;;;;;21.31;48.32;98243.44;1721864;82;24478;-84
2022/05/12 18:51:44;;;;;;;;;;;;;;;21.16;48.33;98242.91;1720783;82;21698;-83
2022/05/12 18:54:10;;;;;;;6.90;1.85;;;;;;;21.02;48.42;98242.30;1719663;83;20802;-83
2022/05/12 18:56:37;;;;;;;7.28;1.85;;;;;;;20.89;48.50;98246.86;1662369;86;28077;-84
2022/05/12 18:59:04;;;;;;;4.15;1.67;;;;;;;20.87;48.69;98249.39;1692294;84;28082;-84
2022/05/12 19:01:30;;;;;;;6.28;1.65;;;;;;;20.83;48.79;98246.27;1691297;84;28097;-84
2022/05/12 19:03:58;;;;;;;4.30;1.40;;;;;;;20.75;48.91;98248.96;1690364;84;28068;-87
2022/05/12 19:06:25;;;;;;;4.95;1.60;;;;;;;20.69;49.14;98255.48;1663237;85;28136;-87
2022/05/12 19:08:51;;;;;;;5.78;1.77;;;;;;;20.60;49.28;98256.05;1678332;85;28010;-87
2022/05/12 19:11:18;;;;;;;4.37;1.80;;;;;;;20.51;49.47;98258.39;1670411;85;28113;-84
2022/05/12 19:13:45;;;;;;;7.85;2.65;;;;;;;20.42;49.52;98262.11;1693012;83;28491;-84
2022/05/12 19:16:12;;;;;;;14.95;6.55;;;;;;;20.33;49.54;98265.81;1663867;85;28085;-84
2022/05/12 19:18:38;;;;;;;8.53;3.75;;;;;;;20.20;49.52;98272.13;1663154;84;28144;-84
2022/05/12 19:21:05;;;;;;;6.05;2.52;;;;;;;20.07;49.49;98271.86;1668420;85;28120;-84
2022/05/12 19:23:35;;;;;;;8.98;2.35;;;;;;;19.97;49.62;98272.86;1692575;84;28177;-84
2022/05/12 19:26:02;;;;;;;5.97;3.10;;;;;;;19.94;49.81;98270.56;1662685;86;28030;-87
2022/05/12 19:28:31;;;;;;;7.37;3.08;;;;;;;19.87;49.96;98273.55;1673991;85;28141;-87
2022/05/12 19:30:57;;;;;;;5.37;2.27;;;;;;;19.83;50.13;98275.39;1675465;85;28078;-84
2022/05/12 19:33:25;;;;;;;7.45;3.02;;;;;;;19.77;50.40;98276.90;1690345;83;28266;-84
2022/05/12 19:35:55;;;;;;;5.58;2.60;;;;;;;19.73;50.71;98279.57;1671376;85;27996;-84
2022/05/12 19:38:22;;;;;;;4.67;2.00;;;;;;;19.67;50.99;98282.06;1663801;84;28136;-84
2022/05/12 19:40:48;;;;;;;4.67;2.08;;;;;;;19.63;51.33;98291.70;1674332;85;28113;-84
2022/05/12 19:43:16;;;;;;;5.55;2.35;;;;;;;19.61;51.67;98290.20;1692028;84;28124;-84
2022/05/12 19:45:45;;;;;;;3.67;1.80;;;;;;;19.56;51.98;98294.69;1662875;86;28088;-84
2022/05/12 19:48:15;;;;;;;5.95;1.80;;;;;;;19.50;52.24;98291.86;1663313;86;28170;-84
2022/05/12 19:50:48;;;;;;;1.95;1.45;;;;;;;19.42;52.48;98295.30;1680590;83;28061;-84
2022/05/12 19:53:15;;;;;;;4.72;2.00;;;;;;;19.37;52.69;98296.80;1684435;85;28113;-87
2022/05/12 19:55:43;;;;;;;5.87;2.20;;;;;;;19.33;52.90;98294.98;1683758;84;28185;-84
2022/05/12 19:58:10;;;;;;;5.20;2.00;;;;;;;19.28;53.00;98290.67;1711892;83;28076;-84
2022/05/12 20:00:38;;;;;;;4.33;2.08;;;;;;;19.26;53.15;98289.16;1715110;83;28171;-84
2022/05/12 20:03:05;;;;;;;5.42;1.95;;;;;;;19.20;53.29;98290.69;1684353;84;28141;-83
2022/05/12 20:05:31;;;;;;;5.78;2.10;;;;;;;19.16;53.38;98288.00;1698415;83;28012;-83
2022/05/12 20:08:03;;;;;;;5.25;2.25;;;;;;;19.07;53.52;98289.00;1698379;84;28150;-83
2022/05/12 20:10:35;;;;;;;4.12;1.87;;;;;;;18.97;53.79;98283.02;1696579;84;28088;-84
2022/05/12 20:12:59;;;;;;;6.78;2.58;;;;;;;18.85;54.24;98286.97;1698785;83;27994;-84
2022/05/12 20:15:25;;;;;;;6.90;2.12;;;;;;;18.71;54.66;98285.27;1695228;83;28142;-84
2022/05/12 20:17:52;;;;;;;7.95;2.45;;;;;;;18.60;54.89;98284.24;1704711;82;28082;-84
2022/05/12 20:20:22;;;;;;;6.35;2.60;;;;;;;18.56;55.11;98290.87;1713339;83;28128;-83
2022/05/12 20:22:49;;;;;;;6.28;2.22;;;;;;;18.50;55.22;98291.97;1715236;83;22179;-87
2022/05/12 20:25:16;;;;;;;9.20;3.20;;;;;;;18.47;55.34;98294.95;1684229;84;28102;-84
2022/05/12 20:27:49;;;;;;;4.72;2.10;;;;;;;18.45;55.50;98293.77;1698459;84;28166;-84
2022/05/12 20:30:19;;;;;;;7.05;2.50;;;;;;;18.39;55.66;98295.73;1701013;83;28186;-84
2022/05/12 20:32:46;;;;;;;6.72;1.80;;;;;;;18.30;55.73;98304.65;1683038;84;28098;-84
2022/05/12 20:35:15;;;;;;;6.35;2.40;;;;;;;18.18;56.05;98308.06;1713227;83;28529;-84
2022/05/12 20:37:43;;;;;;;6.75;2.20;;;;;;;18.06;56.62;98317.75;1716153;82;28077;-84
2022/05/12 20:40:12;;;;;;;4.03;1.98;;;;;;;17.92;57.25;98310.74;1714145;83;28104;-83
2022/05/12 20:42:39;;;;;;;5.53;2.40;;;;;;;17.80;57.31;98313.80;1712179;83;28041;-87
2022/05/12 20:45:59;;;;;;;4.40;2.25;;;;;;;17.71;57.40;98323.52;1684817;84;28140;-84
2022/05/12 20:47:43;;;;;;;6.22;2.30;;;;;;;17.64;57.54;98323.78;1678531;85;28002;-84
2022/05/12 20:50:09;;;;;;;5.90;3.00;;;;;;;17.58;57.85;98321.22;1684867;84;27985;-84
2022/05/12 20:52:35;;;;;;;3.58;2.08;;;;;;;17.60;58.23;98318.47;1706179;83;28103;-84
2022/05/12 20:55:05;;;;;;;7.15;2.00;;;;;;;17.61;58.58;98316.65;1683295;84;28188;-84
2022/05/12 20:57:31;;;;;;;5.87;2.40;;;;;;;17.60;58.90;98313.17;1699532;83;28096;-84
2022/05/12 20:59:58;;;;;;;3.83;1.92;;;;;;;17.60;59.20;98310.52;1687289;84;28093;-84
2022/05/12 21:02:26;;;;;;;6.78;2.10;;;;;;;17.61;59.50;98317.48;1687128;84;28171;-84
2022/05/12 21:04:55;;;;;;;4.17;1.85;;;;;;;17.57;59.75;98318.23;1706795;83;28078;-84
2022/05/12 21:07:26;;;;;;;11.40;2.17;;;;;;;17.57;59.93;98318.72;1683314;84;28192;-84
2022/05/12 21:09:53;;;;;;;4.17;2.12;;;;;;;17.60;60.23;98316.30;1714051;83;28051;-84
2022/05/12 21:12:19;;;;;;;5.78;2.25;;;;;;;17.64;60.50;98316.33;1711909;83;28126;-84
2022/05/12 21:14:46;;;;;;;4.67;2.00;;;;;;;17.65;60.73;98306.92;1713595;83;28081;-84
2022/05/12 21:17:23;;;;;;;4.45;1.65;;;;;;;17.64;60.84;98312.36;1715624;82;28008;-84
2022/05/12 21:19:48;;;;;;;8.05;1.75;;;;;;;17.61;60.84;98306.06;1686222;84;28082;-84
2022/05/12 21:22:14;;;;;;;4.08;2.10;;;;;;;17.57;60.96;98312.11;1697666;84;28127;-84
2022/05/12 21:24:41;;;;;;;6.53;2.05;;;;;;;17.47;60.89;98310.05;1696425;84;28013;-84
2022/05/12 21:27:06;;;;;;;;;;;;;;;17.44;61.11;98305.08;1697130;83;28128;-84
2022/05/12 21:29:33;;;;;;;5.00;2.60;;;;;;;17.43;61.51;98314.83;1692371;83;43051;-84
2022/05/12 21:31:59;;;;;;;5.87;2.27;;;;;;;17.42;61.72;98314.48;1693486;83;28068;-84
2022/05/12 21:34:26;;;;;;;3.00;2.12;;;;;;;17.35;61.66;98319.20;1701186;82;28143;-84
2022/05/12 21:36:53;;;;;;;2.65;1.70;;;;;;;17.31;61.79;98323.14;1701912;83;28077;-84
2022/05/12 21:39:19;;;;;;;6.28;2.37;;;;;;;17.32;62.20;98315.55;1699465;83;25552;-87
2022/05/12 21:41:48;;;;;;;7.42;2.85;;;;;;;17.36;62.58;98318.22;1697506;83;28077;-87
2022/05/12 21:44:18;;;;;;;8.83;3.70;;;;;;;17.39;62.88;98316.61;1698512;83;28117;-88
2022/05/12 21:46:52;;;;;;;6.50;2.83;;;;;;;17.36;63.23;98309.80;1698972;83;28038;-87
2022/05/12 21:49:19;;;;;;;5.97;2.95;;;;;;;17.34;63.52;98317.56;1692416;83;28197;-85
2022/05/12 21:51:46;;;;;;;5.28;2.70;;;;;;;17.30;63.63;98317.50;1698491;83;28082;-85
2022/05/12 21:54:13;;;;;;;5.50;2.50;;;;;;;17.23;63.84;98316.47;1696169;83;28011;-84
2022/05/12 21:56:40;;;;;;;4.55;1.80;;;;;;;17.16;64.24;98316.23;1698821;83;28170;-84
2022/05/12 22:01:58;;;;;;;6.08;2.70;;;;;;;17.10;65.35;98306.27;1695023;83;28091;-84
2022/05/12 22:04:27;;;;;;;11.28;2.55;;;;;;;17.12;65.68;98307.79;1700420;83;28065;-84
2022/05/12 22:07:00;;;;;;;5.08;2.50;;;;;;;17.15;65.68;98310.11;1698083;83;28153;-84
2022/05/12 22:09:29;;;;;;;6.60;2.47;;;;;;;17.15;65.60;98317.22;1695312;83;28172;-84
2022/05/12 22:12:41;;;;;;;10.60;2.90;;;;;;;17.03;65.53;98320.56;1695975;83;28119;-85
2022/05/12 22:14:29;;;;;;;7.17;3.35;;;;;;;16.92;65.94;98319.47;1679061;83;28120;-88
2022/05/12 22:17:11;;;;;;;4.40;2.30;;;;;;;16.83;66.28;98316.41;1695440;83;28103;-88
2022/05/12 22:19:40;;;;;;;5.58;2.40;;;;;;;16.77;66.78;98301.63;1700948;83;28119;-84
2022/05/12 22:22:07;;;;;;;4.70;2.47;;;;;;;16.63;66.91;98295.05;1696774;83;28086;-85
2022/05/12 22:24:36;;;;;;;7.40;2.52;;;;;;;16.52;67.02;98302.66;1674410;84;28194;-85
2022/05/12 22:27:04;;;;;;;6.62;2.47;;;;;;;16.49;67.33;98310.03;1699228;83;28051;-85
2022/05/12 22:29:32;;;;;;;6.97;3.02;;;;;;;16.47;67.68;98308.05;1698082;83;28094;-84
2022/05/12 22:31:58;;;;;;;6.22;2.47;;;;;;;16.43;68.19;98302.20;1698179;83;28057;-88
2022/05/12 22:34:25;;;;;;;4.67;2.20;;;;;;;16.42;68.70;98303.17;1695996;83;28118;-88
2022/05/12 22:36:52;;;;;;;4.00;2.27;;;;;;;16.40;69.24;98301.67;1696825;83;28199;-88
2022/05/12 22:39:19;;;;;;;6.33;2.80;;;;;;;16.38;69.71;98305.78;1698326;83;28091;-88
2022/05/12 22:41:46;;;;;;;4.30;2.05;;;;;;;16.32;70.02;98305.04;1695411;83;28122;-85
2022/05/12 22:44:13;;;;;;;6.40;2.60;;;;;;;16.29;70.25;98310.14;1696833;83;28013;-84
2022/05/12 22:46:41;;;;;;;7.15;3.22;;;;;;;16.22;70.48;98314.81;1696231;83;28107;-84
2022/05/12 22:49:08;;;;;;;5.37;2.70;;;;;;;16.12;70.83;98312.22;1695384;83;28480;-84
2022/05/12 22:51:34;;;;;;;3.47;2.22;;;;;;;16.01;71.23;98315.03;1686680;83;28165;-83
2022/05/12 22:54:01;;;;;;;6.42;2.70;;;;;;;15.93;71.58;98313.59;1688980;84;28055;-83
2022/05/12 22:56:27;;;;;;;4.85;2.50;;;;;;;15.91;71.80;98307.64;1689093;84;28063;-83
2022/05/12 22:58:59;;;;;;;4.22;2.15;;;;;;;15.95;72.10;98306.38;1688222;84;28139;-83
2022/05/12 23:01:25;;;;;;;3.55;2.02;;;;;;;15.97;72.33;98308.39;1689047;84;28109;-84
2022/05/12 23:03:52;;;;;;;7.10;2.17;;;;;;;15.97;72.56;98308.39;1689875;84;28017;-88
2022/05/12 23:06:18;;;;;;;7.17;2.33;;;;;;;15.96;72.69;98305.41;1687573;84;28083;-88
2022/05/12 23:08:46;;;;;;;3.83;2.00;;;;;;;15.88;72.61;98299.99;1689776;83;28100;-87
2022/05/12 23:11:12;;;;;;;5.03;2.08;;;;;;;15.74;72.67;98305.25;1689094;84;28123;-87
2022/05/12 23:13:42;;;;;;;5.20;2.12;;;;;;;15.69;72.92;98310.13;1689290;84;28135;-87
2022/05/12 23:16:11;;;;;;;3.02;1.90;;;;;;;15.76;73.32;98307.76;1689681;84;28068;-84
2022/05/12 23:24:14;;;;;;;5.03;2.33;;;;;;;15.72;74.20;98307.19;1688318;84;28087;-87
2022/05/12 23:26:41;;;;;;;5.22;2.40;;;;;;;15.72;74.66;98302.40;1687937;84;28407;-87
2022/05/12 23:29:07;;;;;;;;;;;;;;;15.80;75.09;98306.48;1695111;83;28181;-87
2022/05/12 23:31:33;;;;;;;;;;;;;;;15.82;75.38;98312.44;1695840;84;21040;-87
2022/05/12 23:33:59;;;;;;;;;;;;;;;15.81;75.69;98310.31;1694196;84;20886;-87